Time;durP1;ratioP1;P1;durP2;ratioP2;P2;SDS_P1;SDS_P2;PMS_P1;PMS_P2;Temp;Humidity;BMP_temperature;BMP_pressure;BME280_temperature;BME280_humidity;BME280_pressure;Samples;Min_cycle;Max_cycle;Signal;HPM_P1;HPM_P2
2023/01/20 00:01:04;;;;;;;6.25;4.03;;;;;;;1.49;100.00;99965.03;5023611;28;20033;-75
2023/01/20 00:03:30;;;;;;;6.70;4.35;;;;;;;1.47;100.00;99965.84;5025411;28;20496;-75
2023/01/20 00:05:55;;;;;;;8.05;3.15;;;;;;;1.49;100.00;99966.72;5024484;28;20444;-75
2023/01/20 00:08:20;;;;;;;8.40;4.63;;;;;;;1.49;100.00;99969.34;5038438;28;20110;-75
2023/01/20 00:10:46;;;;;;;7.13;3.80;;;;;;;1.44;100.00;99970.97;5032711;28;20034;-75
2023/01/20 00:13:11;;;;;;;8.25;4.07;;;;;;;1.47;100.00;99971.06;5027723;28;20028;-75
2023/01/20 00:15:36;;;;;;;10.68;5.30;;;;;;;1.48;100.00;99973.66;5027799;28;20041;-75
2023/01/20 00:18:02;;;;;;;14.10;5.97;;;;;;;1.54;100.00;99971.19;5032230;28;20415;-75
2023/01/20 00:20:27;;;;;;;12.70;6.63;;;;;;;1.60;100.00;99966.97;5026602;28;20025;-75
2023/01/20 00:22:52;;;;;;;16.33;7.07;;;;;;;1.67;100.00;99963.66;5024081;28;20044;-75
2023/01/20 00:25:19;;;;;;;10.82;5.88;;;;;;;1.67;100.00;99974.06;5025284;28;20033;-75
2023/01/20 00:27:45;;;;;;;14.48;5.97;;;;;;;1.68;100.00;99979.28;5022558;28;20030;-76
2023/01/20 00:30:11;;;;;;;11.60;6.38;;;;;;;1.69;100.00;99973.25;5025571;28;20447;-75
2023/01/20 00:32:44;;;;;;;14.93;5.00;;;;;;;1.71;100.00;99981.97;5040585;28;20034;-76
2023/01/20 00:35:10;;;;;;;6.53;4.00;;;;;;;1.77;100.00;99980.31;5023564;28;20445;-75
2023/01/20 00:37:35;;;;;;;8.00;4.40;;;;;;;1.71;100.00;99987.16;5027573;28;20097;-75
2023/01/20 00:40:01;;;;;;;7.03;4.40;;;;;;;1.74;100.00;99994.16;5025478;28;20034;-75
2023/01/20 00:42:26;;;;;;;10.45;5.00;;;;;;;1.78;100.00;99997.69;5023172;28;20037;-75
2023/01/20 00:44:51;;;;;;;9.27;5.05;;;;;;;1.83;100.00;99994.31;5027879;28;20606;-75
2023/01/20 00:47:19;;;;;;;10.43;5.25;;;;;;;1.85;100.00;100003.03;5023546;28;20487;-75
2023/01/20 00:49:45;;;;;;;9.57;4.35;;;;;;;1.87;100.00;100000.50;5029177;28;20038;-75
2023/01/20 00:52:10;;;;;;;8.60;5.28;;;;;;;1.87;100.00;100003.09;5025542;28;20099;-76
2023/01/20 00:54:35;;;;;;;10.10;5.78;;;;;;;1.87;100.00;100006.56;5022334;28;20033;-75
2023/01/20 00:57:01;;;;;;;10.35;5.75;;;;;;;1.82;100.00;100009.94;5024583;28;20450;-75
2023/01/20 00:59:26;;;;;;;11.35;5.20;;;;;;;1.82;100.00;100015.13;5023125;28;20408;-76
2023/01/20 01:01:51;;;;;;;10.30;4.95;;;;;;;1.78;100.00;100011.56;5027546;28;20487;-76
2023/01/20 01:04:17;;;;;;;10.43;5.50;;;;;;;1.80;100.00;100020.28;5026205;28;20115;-75
2023/01/20 01:06:42;;;;;;;8.85;5.07;;;;;;;1.74;100.00;100023.66;5028015;28;20029;-75
2023/01/20 01:09:07;;;;;;;16.48;4.85;;;;;;;1.77;100.00;100024.56;5026633;28;20404;-75
2023/01/20 01:11:32;;;;;;;11.07;5.20;;;;;;;1.73;100.00;100028.84;5026854;28;20538;-75
2023/01/20 01:13:58;;;;;;;8.90;4.97;;;;;;;1.70;100.00;100037.44;5025325;28;20061;-75
2023/01/20 01:16:23;;;;;;;10.57;4.95;;;;;;;1.75;100.00;100035.78;5023368;28;20083;-75
2023/01/20 01:18:52;;;;;;;9.38;5.43;;;;;;;1.80;100.00;100037.63;5025235;28;20045;-75
2023/01/20 01:21:17;;;;;;;7.35;4.82;;;;;;;1.79;100.00;100041.09;5024362;28;20103;-76
2023/01/20 01:23:43;;;;;;;9.57;4.88;;;;;;;1.77;100.00;100037.56;5021854;28;20042;-75
2023/01/20 01:26:09;;;;;;;7.63;4.18;;;;;;;1.70;100.00;100045.25;5024370;28;20029;-75
2023/01/20 01:28:34;;;;;;;6.90;4.20;;;;;;;1.64;100.00;100047.69;5022951;28;20500;-75
2023/01/20 01:31:05;;;;;;;8.57;4.70;;;;;;;1.64;100.00;100055.50;5022032;28;20033;-75
2023/01/20 01:33:31;;;;;;;10.18;5.00;;;;;;;1.66;100.00;100053.81;5024305;28;20103;-75
2023/01/20 01:35:58;;;;;;;8.25;5.18;;;;;;;1.71;100.00;100053.94;5023637;28;20034;-75
2023/01/20 01:38:24;;;;;;;9.98;3.75;;;;;;;1.73;100.00;100053.13;5026654;28;20034;-75
2023/01/20 01:40:51;;;;;;;10.68;5.82;;;;;;;1.75;100.00;100069.63;5023561;28;20032;-75
2023/01/20 01:43:27;;;;;;;9.13;4.95;;;;;;;1.74;100.00;100065.28;5023245;28;20049;-75
2023/01/20 01:45:53;;;;;;;7.22;4.43;;;;;;;1.71;100.00;100070.41;5020684;28;20041;-75
2023/01/20 01:48:33;;;;;;;7.20;4.97;;;;;;;1.71;100.00;100073.00;5025113;28;20113;-75
2023/01/20 01:51:06;;;;;;;9.43;4.68;;;;;;;1.72;100.00;100071.28;5021282;28;20099;-75
2023/01/20 01:53:38;;;;;;;11.93;5.43;;;;;;;1.73;100.00;100078.25;5022235;28;20435;-75
2023/01/20 01:56:04;;;;;;;9.63;4.63;;;;;;;1.74;100.00;100083.47;5024416;28;20033;-75
2023/01/20 01:58:34;;;;;;;15.07;5.88;;;;;;;1.64;100.00;100089.31;5021408;28;20087;-75
2023/01/20 02:00:59;;;;;;;9.95;4.75;;;;;;;1.63;100.00;100094.50;5021277;28;20107;-75
2023/01/20 02:03:30;;;;;;;9.07;5.85;;;;;;;1.62;100.00;100096.19;5023310;28;20492;-75
2023/01/20 02:05:56;;;;;;;10.77;4.40;;;;;;;1.66;100.00;100098.03;5022829;28;20037;-75
2023/01/20 02:08:23;;;;;;;10.65;5.70;;;;;;;1.66;100.00;100098.03;5025409;28;20095;-75
2023/01/20 02:10:49;;;;;;;9.77;5.28;;;;;;;1.73;100.00;100099.94;5024035;28;20056;-75
2023/01/20 02:13:14;;;;;;;9.30;4.88;;;;;;;1.81;100.00;100105.31;5021456;28;20041;-76
2023/01/20 02:16:12;;;;;;;7.57;4.47;;;;;;;1.87;100.00;100113.25;5029562;28;20099;-75
2023/01/20 02:18:47;;;;;;;9.38;4.63;;;;;;;1.86;100.00;100102.81;5028574;28;20060;-75
2023/01/20 02:21:32;;;;;;;8.63;4.68;;;;;;;1.85;100.00;100109.75;5024958;28;20037;-76
2023/01/20 02:24:18;;;;;;;9.73;5.00;;;;;;;1.89;100.00;100110.72;5028158;28;20088;-76
2023/01/20 02:27:07;;;;;;;8.27;4.93;;;;;;;1.88;100.00;100108.94;5020060;28;20459;-75
2023/01/20 02:30:10;;;;;;;14.05;5.57;;;;;;;1.87;100.00;100112.38;5023808;28;20096;-75
2023/01/20 02:32:54;;;;;;;8.35;4.72;;;;;;;1.83;100.00;100116.63;5022068;28;20400;-75
2023/01/20 02:35:28;;;;;;;10.18;5.18;;;;;;;1.75;100.00;100116.44;5022668;28;20120;-75
2023/01/20 02:38:13;;;;;;;8.77;4.97;;;;;;;1.72;100.00;100119.00;5027172;28;20040;-75
2023/01/20 02:43:29;;;;;;;8.50;4.40;;;;;;;1.76;100.00;100119.94;4981658;28;20129;-73
2023/01/20 02:46:06;;;;;;;10.00;5.30;;;;;;;1.73;100.00;100125.97;4983501;28;20125;-72
2023/01/20 02:49:00;;;;;;;12.65;5.78;;;;;;;1.73;100.00;100127.69;4985361;28;20417;-73
2023/01/20 02:51:35;;;;;;;8.60;5.25;;;;;;;1.75;100.00;100123.38;4984568;28;20454;-73
2023/01/20 02:54:05;;;;;;;10.30;5.72;;;;;;;1.73;100.00;100136.38;4981180;28;20030;-73
2023/01/20 02:56:31;;;;;;;7.65;4.35;;;;;;;1.71;100.00;100132.84;4981048;28;20038;-73
2023/01/20 02:59:03;;;;;;;9.65;4.95;;;;;;;1.80;100.00;100134.78;4982956;28;20073;-73
2023/01/20 03:01:35;;;;;;;11.30;5.20;;;;;;;1.87;100.00;100133.22;4983442;28;20543;-73
2023/01/20 03:04:03;;;;;;;8.27;4.18;;;;;;;1.86;100.00;100147.03;4983646;28;20053;-73
2023/01/20 03:06:36;;;;;;;18.58;6.93;;;;;;;1.91;100.00;100145.41;4985681;28;20057;-73
2023/01/20 03:09:07;;;;;;;10.98;5.30;;;;;;;1.93;100.00;100133.34;4985537;28;20674;-73
2023/01/20 03:11:37;;;;;;;14.70;6.35;;;;;;;1.93;100.00;100143.75;4981171;28;20037;-73
2023/01/20 03:14:07;;;;;;;16.65;6.07;;;;;;;1.95;100.00;100142.06;4982638;28;20038;-73
2023/01/20 03:16:33;;;;;;;11.32;6.20;;;;;;;1.95;100.00;100144.66;4982884;28;20477;-73
2023/01/20 03:18:58;;;;;;;14.32;6.55;;;;;;;1.93;100.00;100154.16;4980706;28;20097;-73
2023/01/20 03:21:24;;;;;;;11.18;5.35;;;;;;;1.88;100.00;100156.63;4983694;28;20058;-73
2023/01/20 03:23:58;;;;;;;10.18;5.00;;;;;;;1.86;100.00;100153.16;4983849;28;20053;-73
2023/01/20 03:26:23;;;;;;;10.95;5.72;;;;;;;1.77;100.00;100162.47;4982601;28;20030;-73
2023/01/20 03:28:49;;;;;;;8.75;4.55;;;;;;;1.80;100.00;100167.72;4980269;28;20031;-73
2023/01/20 03:31:19;;;;;;;11.60;5.28;;;;;;;1.85;100.00;100160.91;4980261;28;20034;-73
2023/01/20 03:33:47;;;;;;;10.32;4.75;;;;;;;1.84;100.00;100170.44;4982172;28;20575;-72
2023/01/20 03:36:14;;;;;;;9.77;5.25;;;;;;;1.87;100.00;100174.84;4982009;28;20511;-73
2023/01/20 03:38:41;;;;;;;11.52;6.38;;;;;;;1.89;100.00;100178.38;4984935;28;20084;-73
2023/01/20 03:41:17;;;;;;;10.45;4.82;;;;;;;1.92;100.00;100183.63;4983412;28;20048;-73
2023/01/20 03:44:05;;;;;;;10.95;5.65;;;;;;;1.93;100.00;100190.59;4983764;28;20052;-73
2023/01/20 03:46:43;;;;;;;12.27;6.13;;;;;;;1.96;100.00;100185.44;4985592;28;20069;-73
2023/01/20 03:49:16;;;;;;;12.43;6.10;;;;;;;1.95;100.00;100191.50;4982029;28;20113;-73
2023/01/20 03:52:01;;;;;;;;;;;;;;;1.92;100.00;100194.03;4987652;28;20085;-73
2023/01/20 03:54:33;;;;;;;11.95;5.03;;;;;;;1.92;100.00;100191.44;4985999;28;19917;-73
2023/01/20 03:57:12;;;;;;;11.88;5.90;;;;;;;1.90;100.00;100193.13;4981680;28;20042;-73
2023/01/20 03:59:40;;;;;;;12.65;5.43;;;;;;;1.84;100.00;100195.59;4983665;28;20505;-73
2023/01/20 04:02:07;;;;;;;12.77;4.97;;;;;;;1.86;100.00;100196.47;4983618;28;20118;-73
2023/01/20 04:04:37;;;;;;;11.38;5.88;;;;;;;1.87;100.00;100199.13;4980458;28;20038;-73
2023/01/20 04:07:05;;;;;;;12.45;6.45;;;;;;;1.88;100.00;100197.41;4984660;28;20069;-72
2023/01/20 04:09:36;;;;;;;11.07;5.80;;;;;;;1.86;100.00;100207.78;4983367;28;20045;-73
2023/01/20 04:12:02;;;;;;;9.48;4.50;;;;;;;1.88;100.00;100210.41;4982905;28;20037;-73
2023/01/20 04:14:27;;;;;;;12.60;5.28;;;;;;;1.91;100.00;100213.09;4980096;28;20034;-73
2023/01/20 04:16:56;;;;;;;11.02;4.95;;;;;;;1.94;100.00;100214.06;4965194;28;20039;-73
2023/01/20 04:19:22;;;;;;;12.05;4.63;;;;;;;1.93;100.00;100220.09;4983051;28;20466;-73
2023/01/20 04:21:52;;;;;;;10.57;5.28;;;;;;;1.90;100.00;100216.53;4983259;28;20041;-73
2023/01/20 04:24:35;;;;;;;10.52;4.88;;;;;;;1.87;100.00;100219.09;4983219;28;20482;-73
2023/01/20 04:27:00;;;;;;;12.57;5.57;;;;;;;1.81;100.00;100225.03;4981491;28;20049;-73
2023/01/20 04:29:25;;;;;;;12.73;5.63;;;;;;;1.81;100.00;100231.91;4978503;28;20031;-73
2023/01/20 04:31:58;;;;;;;10.60;5.15;;;;;;;1.82;100.00;100229.38;4985919;28;20085;-73
2023/01/20 04:34:23;;;;;;;10.70;4.40;;;;;;;1.82;100.00;100233.69;4986398;28;20085;-73
2023/01/20 04:36:48;;;;;;;13.38;5.82;;;;;;;1.79;100.00;100229.31;4983721;28;20062;-73
2023/01/20 04:39:14;;;;;;;15.68;6.53;;;;;;;1.84;100.00;100238.09;4981114;28;20054;-72
2023/01/20 04:41:39;;;;;;;9.10;4.80;;;;;;;1.88;100.00;100233.84;4982244;28;20101;-73
2023/01/20 04:44:04;;;;;;;12.20;5.65;;;;;;;1.83;100.00;100235.44;4984162;28;20050;-73
2023/01/20 04:46:30;;;;;;;12.48;6.25;;;;;;;1.84;100.00;100234.63;4984364;28;20046;-73
2023/01/20 04:48:55;;;;;;;14.18;5.13;;;;;;;1.88;100.00;100233.84;4989554;28;20045;-72
2023/01/20 04:51:20;;;;;;;11.35;5.47;;;;;;;1.94;100.00;100241.81;4986211;28;20061;-73
2023/01/20 04:53:46;;;;;;;12.48;6.28;;;;;;;2.00;100.00;100238.47;4984900;28;20073;-72
2023/01/20 04:56:12;;;;;;;11.48;5.60;;;;;;;2.01;100.00;100235.88;4990678;28;20066;-73
2023/01/20 04:58:38;;;;;;;9.77;4.35;;;;;;;1.98;100.00;100236.69;4989107;28;20038;-74
2023/01/20 05:01:03;;;;;;;13.32;6.30;;;;;;;2.00;100.00;100244.56;4986069;28;20045;-73
2023/01/20 05:03:28;;;;;;;11.38;5.68;;;;;;;1.98;100.00;100235.81;4985912;28;20058;-74
2023/01/20 05:05:54;;;;;;;12.20;5.68;;;;;;;1.99;100.00;100232.38;4983338;28;20030;-73
2023/01/20 05:08:19;;;;;;;16.38;5.00;;;;;;;2.01;100.00;100233.28;4989370;28;20524;-73
2023/01/20 05:10:44;;;;;;;10.68;5.38;;;;;;;2.05;100.00;100245.53;4988304;28;20445;-74
2023/01/20 05:13:10;;;;;;;11.88;5.53;;;;;;;2.00;100.00;100254.97;4987214;28;20521;-73
2023/01/20 05:15:35;;;;;;;14.00;5.18;;;;;;;2.03;100.00;100255.03;4980834;28;20497;-73
2023/01/20 05:18:00;;;;;;;11.88;6.50;;;;;;;2.03;100.00;100254.16;4986483;28;20613;-73
2023/01/20 05:20:26;;;;;;;12.18;6.00;;;;;;;2.04;100.00;100261.97;4987264;28;20034;-73
2023/01/20 05:22:51;;;;;;;14.60;6.78;;;;;;;2.05;100.00;100261.16;4988387;28;20057;-73
2023/01/20 05:25:16;;;;;;;12.85;5.88;;;;;;;2.02;100.00;100265.38;4985103;28;20097;-72
2023/01/20 05:27:43;;;;;;;12.68;6.78;;;;;;;2.03;100.00;100270.66;4985700;28;20070;-73
2023/01/20 05:30:10;;;;;;;16.70;7.80;;;;;;;2.08;100.00;100274.25;4982393;28;20050;-73
2023/01/20 05:32:35;;;;;;;26.85;7.53;;;;;;;2.04;100.00;100282.81;4969066;28;20030;-73
2023/01/20 05:35:00;;;;;;;13.43;6.95;;;;;;;2.04;100.00;100281.94;4985502;28;20057;-73
2023/01/20 05:37:26;;;;;;;15.18;7.13;;;;;;;2.07;100.00;100285.50;4985686;28;20066;-73
2023/01/20 05:39:52;;;;;;;13.43;7.07;;;;;;;2.04;100.00;100288.00;4984964;28;20042;-73
2023/01/20 05:42:17;;;;;;;12.02;6.38;;;;;;;2.09;100.00;100294.22;4988148;28;20034;-73
2023/01/20 05:44:42;;;;;;;14.95;6.68;;;;;;;2.05;100.00;100294.13;4986118;28;20049;-72
2023/01/20 05:47:08;;;;;;;14.68;6.50;;;;;;;2.03;100.00;100301.00;4981412;28;20043;-73
2023/01/20 05:49:33;;;;;;;14.52;6.47;;;;;;;2.01;100.00;100306.16;4985799;28;20046;-73
2023/01/20 05:51:59;;;;;;;11.77;5.57;;;;;;;1.95;100.00;100309.50;4985863;28;20450;-73
2023/01/20 05:54:25;;;;;;;13.20;5.47;;;;;;;2.03;100.00;100311.44;4986534;28;20165;-73
2023/01/20 05:56:50;;;;;;;11.98;6.57;;;;;;;2.04;100.00;100315.78;4986605;28;20046;-73
2023/01/20 05:59:15;;;;;;;11.98;6.15;;;;;;;2.03;100.00;100317.50;4991191;28;20401;-73
2023/01/20 06:01:41;;;;;;;12.43;6.38;;;;;;;2.08;100.00;100321.09;4970495;28;20054;-72
2023/01/20 06:04:06;;;;;;;22.17;12.32;;;;;;;2.17;100.00;100320.44;4986684;28;20041;-73
2023/01/20 06:06:32;;;;;;;17.92;8.23;;;;;;;2.19;100.00;100324.84;4988892;28;20113;-73
2023/01/20 06:08:57;;;;;;;18.33;6.93;;;;;;;2.28;100.00;100323.28;4987463;28;20070;-73
2023/01/20 06:11:23;;;;;;;13.35;5.53;;;;;;;2.36;100.00;100321.78;4983288;28;20041;-73
2023/01/20 06:13:48;;;;;;;16.35;7.65;;;;;;;2.32;100.00;100325.16;4987348;28;20038;-73
2023/01/20 06:16:15;;;;;;;11.30;4.88;;;;;;;2.26;100.00;100325.88;4990046;28;20066;-73
2023/01/20 06:18:40;;;;;;;16.58;6.00;;;;;;;2.22;100.00;100329.25;4990109;28;20100;-73
2023/01/20 06:21:05;;;;;;;9.77;4.47;;;;;;;2.20;100.00;100336.13;4965225;28;20046;-73
2023/01/20 06:23:31;;;;;;;11.18;4.65;;;;;;;2.20;100.00;100341.34;4983822;28;20042;-73
2023/01/20 06:25:59;;;;;;;11.23;5.60;;;;;;;2.02;100.00;100343.47;4982506;28;20050;-73
2023/01/20 06:28:24;;;;;;;12.48;6.28;;;;;;;1.93;100.00;100349.34;4982713;28;20038;-73
2023/01/20 06:30:49;;;;;;;11.23;5.28;;;;;;;1.96;100.00;100350.31;4984060;28;20046;-73
2023/01/20 06:33:15;;;;;;;13.30;5.97;;;;;;;1.98;100.00;100353.81;4981423;28;20038;-73
2023/01/20 06:35:40;;;;;;;13.35;6.07;;;;;;;2.02;100.00;100361.72;4984462;28;20053;-73
2023/01/20 06:38:05;;;;;;;14.70;7.57;;;;;;;1.94;100.00;100364.13;4995706;28;20038;-73
2023/01/20 06:40:31;;;;;;;13.95;6.38;;;;;;;1.95;100.00;100355.47;4984979;28;20049;-73
2023/01/20 06:42:57;;;;;;;11.25;5.25;;;;;;;1.95;100.00;100363.28;4983089;28;20053;-73
2023/01/20 06:45:23;;;;;;;14.30;6.60;;;;;;;1.90;100.00;100362.28;4981067;28;20126;-73
2023/01/20 06:47:48;;;;;;;16.73;7.53;;;;;;;1.93;100.00;100362.34;4984228;28;20499;-73
2023/01/20 06:50:15;;;;;;;14.77;7.20;;;;;;;2.00;100.00;100368.63;4984091;28;20042;-73
2023/01/20 06:52:40;;;;;;;17.95;6.63;;;;;;;2.12;100.00;100369.81;4985551;28;20038;-74
2023/01/20 06:55:06;;;;;;;14.18;6.82;;;;;;;2.10;100.00;100381.03;4987979;28;20469;-73
2023/01/20 06:57:31;;;;;;;15.00;5.18;;;;;;;2.16;100.00;100384.66;4984159;28;20531;-73
2023/01/20 06:59:58;;;;;;;12.32;5.88;;;;;;;2.15;100.00;100375.09;4981359;28;20031;-73
2023/01/20 07:02:23;;;;;;;11.77;5.45;;;;;;;2.16;100.00;100383.78;4983797;28;20049;-73
2023/01/20 07:04:51;;;;;;;18.60;8.63;;;;;;;2.23;100.00;100395.22;4986872;28;20038;-73
2023/01/20 07:07:16;;;;;;;24.13;9.57;;;;;;;2.22;100.00;100396.06;4989399;28;20034;-73
2023/01/20 07:09:41;;;;;;;14.35;6.10;;;;;;;2.16;100.00;100400.28;4981494;28;20417;-73
2023/01/20 07:12:07;;;;;;;17.33;7.18;;;;;;;2.10;100.00;100399.25;4981614;28;20393;-73
2023/01/20 07:14:32;;;;;;;12.55;6.05;;;;;;;2.10;100.00;100402.72;4988556;28;20482;-73
2023/01/20 07:16:57;;;;;;;12.85;5.47;;;;;;;2.14;100.00;100409.75;4983610;28;20045;-73
2023/01/20 07:19:23;;;;;;;14.77;7.35;;;;;;;2.07;100.00;100412.16;4983445;28;20045;-73
2023/01/20 07:21:48;;;;;;;11.85;5.50;;;;;;;2.06;100.00;100419.09;4963115;28;20035;-73
2023/01/20 07:24:13;;;;;;;13.32;6.35;;;;;;;2.06;100.00;100421.72;4983564;28;20066;-73
2023/01/20 07:26:39;;;;;;;17.45;8.40;;;;;;;2.09;100.00;100419.19;4983466;28;20038;-73
2023/01/20 07:29:04;;;;;;;15.65;6.18;;;;;;;2.07;100.00;100418.28;4981353;28;20094;-73
2023/01/20 07:31:30;;;;;;;22.92;15.88;;;;;;;2.11;100.00;100427.91;4983279;28;20039;-73
2023/01/20 07:33:56;;;;;;;19.08;14.90;;;;;;;2.21;100.00;100434.25;4976518;28;20089;-72
2023/01/20 07:36:22;;;;;;;24.55;13.82;;;;;;;2.26;100.00;100437.00;4984342;28;20037;-73
2023/01/20 07:38:49;;;;;;;17.75;12.35;;;;;;;2.27;100.00;100441.34;4988968;28;20122;-73
2023/01/20 07:41:18;;;;;;;25.52;13.02;;;;;;;2.27;100.00;100438.75;4982377;28;20826;-73
2023/01/20 07:43:45;;;;;;;20.23;13.48;;;;;;;2.27;100.00;100446.56;4981278;28;20042;-73
2023/01/20 07:46:11;;;;;;;13.93;10.98;;;;;;;2.21;100.00;100456.81;4984156;28;20046;-73
2023/01/20 07:48:37;;;;;;;24.75;14.32;;;;;;;2.10;100.00;100460.00;4982981;28;20034;-73
2023/01/20 07:51:05;;;;;;;30.92;15.18;;;;;;;2.12;100.00;100460.94;4983382;28;20034;-73
2023/01/20 07:53:36;;;;;;;16.75;13.85;;;;;;;2.07;100.00;100461.63;4985688;28;20070;-73
2023/01/20 07:56:05;;;;;;;19.02;12.98;;;;;;;2.14;100.00;100460.97;4980150;28;20094;-73
2023/01/20 07:58:31;;;;;;;17.00;12.60;;;;;;;2.24;100.00;100469.91;4983853;28;20081;-73
2023/01/20 08:00:56;;;;;;;20.92;12.57;;;;;;;2.28;100.00;100463.91;4981633;28;20058;-73
2023/01/20 08:03:22;;;;;;;17.05;11.68;;;;;;;2.36;100.00;100472.84;4983386;28;20412;-73
2023/01/20 08:05:47;;;;;;;16.25;11.88;;;;;;;2.42;100.00;100475.59;4984208;28;20046;-73
2023/01/20 08:08:13;;;;;;;20.85;13.68;;;;;;;2.40;100.00;100482.50;4985625;28;20442;-73
2023/01/20 08:10:38;;;;;;;29.73;13.43;;;;;;;2.35;100.00;100487.56;4978760;28;20035;-73
2023/01/20 08:13:03;;;;;;;19.73;12.88;;;;;;;2.42;100.00;100488.63;4982890;28;20096;-73
2023/01/20 08:15:29;;;;;;;19.77;12.13;;;;;;;2.48;100.00;100500.91;4985145;28;20053;-73
2023/01/20 08:17:55;;;;;;;18.83;12.65;;;;;;;2.53;100.00;100494.97;4981621;28;20114;-73
2023/01/20 08:20:21;;;;;;;22.20;12.07;;;;;;;2.55;100.00;100495.91;4982522;28;20049;-73
2023/01/20 08:22:46;;;;;;;16.75;12.73;;;;;;;2.61;100.00;100498.66;4986713;28;20115;-73
2023/01/20 08:25:12;;;;;;;18.45;11.80;;;;;;;2.61;100.00;100498.66;4987006;28;20627;-73
2023/01/20 08:27:46;;;;;;;16.85;12.10;;;;;;;2.73;100.00;100500.72;4986178;28;20161;-73
2023/01/20 08:30:12;;;;;;;20.20;12.48;;;;;;;2.77;100.00;100504.25;4984511;28;20061;-73
2023/01/20 08:32:37;;;;;;;14.40;11.43;;;;;;;2.75;100.00;100505.94;4986179;28;20370;-73
2023/01/20 08:35:03;;;;;;;19.02;14.05;;;;;;;2.78;100.00;100516.47;4983763;28;20142;-73
2023/01/20 08:37:29;;;;;;;20.90;13.00;;;;;;;2.85;100.00;100514.03;4990870;28;20159;-73
2023/01/20 08:39:54;;;;;;;20.13;12.48;;;;;;;2.84;100.00;100520.09;4986970;28;20123;-73
2023/01/20 08:42:19;;;;;;;17.05;12.32;;;;;;;2.79;100.00;100520.84;4985148;28;20046;-73
2023/01/20 08:44:46;;;;;;;21.00;12.25;;;;;;;2.85;100.00;100515.75;4986706;28;20045;-73
2023/01/20 08:47:11;;;;;;;18.38;13.70;;;;;;;2.83;100.00;100522.69;4986431;28;20121;-73
2023/01/20 08:49:36;;;;;;;20.70;12.82;;;;;;;2.92;100.00;100525.50;5011747;23;20132;-75
2023/01/20 08:52:02;;;;;;;16.83;12.85;;;;;;;3.02;100.00;100519.66;5000924;28;20049;-75
2023/01/20 08:54:28;;;;;;;18.33;13.63;;;;;;;2.91;100.00;100526.34;4996891;28;20038;-75
2023/01/20 08:56:54;;;;;;;18.02;13.25;;;;;;;2.81;100.00;100534.78;5000316;28;20037;-75
2023/01/20 08:59:19;;;;;;;22.65;14.13;;;;;;;2.80;100.00;100540.81;4998407;28;20056;-75
2023/01/20 09:01:45;;;;;;;23.63;13.35;;;;;;;2.84;100.00;100540.94;5001095;28;20057;-76
2023/01/20 09:04:11;;;;;;;20.05;13.00;;;;;;;2.94;100.00;100546.41;5003724;28;20033;-75
2023/01/20 09:06:45;;;;;;;22.55;14.88;;;;;;;2.97;100.00;100544.75;5002842;28;20165;-75
2023/01/20 09:09:12;;;;;;;36.88;13.55;;;;;;;3.12;100.00;100545.94;5001087;28;20030;-76
2023/01/20 09:11:38;;;;;;;22.90;14.57;;;;;;;3.20;100.00;100554.88;5000780;28;20038;-74
2023/01/20 09:14:03;;;;;;;20.90;13.50;;;;;;;3.22;100.00;100559.28;5001317;28;20085;-74
2023/01/20 09:16:29;;;;;;;20.13;14.55;;;;;;;3.28;100.00;100562.03;5001490;28;20045;-74
2023/01/20 09:18:54;;;;;;;20.17;13.02;;;;;;;3.25;100.00;100558.47;5004810;28;20033;-74
2023/01/20 09:21:20;;;;;;;19.27;12.60;;;;;;;3.27;100.00;100564.59;5001822;28;20046;-75
2023/01/20 09:23:47;;;;;;;25.13;12.75;;;;;;;3.31;100.00;100574.25;5003489;28;20120;-74
2023/01/20 09:26:12;;;;;;;17.67;12.90;;;;;;;3.31;100.00;100582.09;4983967;28;20030;-74
2023/01/20 09:28:38;;;;;;;20.77;13.50;;;;;;;3.30;100.00;100582.91;5002929;28;20169;-74
2023/01/20 09:31:08;;;;;;;24.05;14.65;;;;;;;3.38;100.00;100586.63;5002029;28;20030;-75
2023/01/20 09:33:36;;;;;;;124.72;111.88;;;;;;;3.31;99.84;100581.22;4997303;28;20193;-74
2023/01/20 09:36:03;;;;;;;9.20;8.70;;;;;;;3.21;99.94;100583.56;5001226;28;20041;-74
2023/01/20 09:44:44;;;;;;;9.25;7.38;;;;;;;3.24;99.63;100581.03;4994857;28;20038;-75
2023/01/20 09:47:28;;;;;;;8.38;6.75;;;;;;;3.15;99.35;100587.78;4982964;28;20046;-74
2023/01/20 09:53:04;;;;;;;7.75;6.60;;;;;;;3.34;99.54;100579.53;4997036;28;20042;-74
2023/01/20 09:55:39;;;;;;;10.05;7.38;;;;;;;3.47;97.79;100585.94;4998444;28;20061;-74
2023/01/20 09:58:29;;;;;;;7.95;7.03;;;;;;;3.41;97.36;100591.03;4999484;28;20045;-74
2023/01/20 10:01:04;;;;;;;8.77;7.22;;;;;;;3.48;97.77;100588.59;4995497;28;20039;-74
2023/01/20 10:03:39;;;;;;;7.85;6.53;;;;;;;3.59;97.19;100587.94;5003351;28;20420;-74
2023/01/20 10:06:14;;;;;;;7.03;6.32;;;;;;;3.68;95.96;100586.41;5002455;28;20052;-74
2023/01/20 10:08:50;;;;;;;8.52;7.63;;;;;;;3.68;95.37;100588.16;5004686;28;20042;-74
2023/01/20 10:11:19;;;;;;;7.60;6.32;;;;;;;3.78;96.08;100581.44;5000765;28;20116;-75
2023/01/20 10:13:55;;;;;;;8.18;6.53;;;;;;;3.79;96.26;100584.06;5000085;28;20030;-74
2023/01/20 10:16:36;;;;;;;6.57;5.85;;;;;;;3.81;95.59;100590.19;5000559;28;20104;-74
2023/01/20 10:19:15;;;;;;;7.13;6.30;;;;;;;3.69;95.91;100587.28;4998253;28;20109;-74
2023/01/20 10:21:49;;;;;;;9.40;6.32;;;;;;;3.74;96.15;100591.78;4997978;28;20048;-74
2023/01/20 10:24:22;;;;;;;8.07;6.45;;;;;;;3.74;95.89;100596.13;4999941;28;20515;-74
2023/01/20 10:27:03;;;;;;;7.38;6.57;;;;;;;3.87;95.60;100587.72;5002032;28;20041;-74
2023/01/20 10:29:37;;;;;;;6.75;6.00;;;;;;;3.83;95.24;100592.84;4999511;28;20048;-74
2023/01/20 10:32:28;;;;;;;7.20;6.47;;;;;;;3.84;95.79;100598.09;5000421;28;20572;-74
2023/01/20 10:34:56;;;;;;;8.15;6.25;;;;;;;3.83;95.12;100596.34;5000381;28;20058;-74
2023/01/20 10:37:22;;;;;;;7.13;6.20;;;;;;;3.60;95.02;100597.53;4989947;28;20450;-74
2023/01/20 10:39:53;;;;;;;6.95;6.25;;;;;;;3.48;96.47;100601.66;5003440;28;20504;-74
2023/01/20 10:42:19;;;;;;;7.35;6.65;;;;;;;3.44;96.92;100599.78;4998811;28;20485;-74
2023/01/20 10:44:46;;;;;;;7.43;6.63;;;;;;;3.57;97.26;100600.09;5000476;28;20034;-74
2023/01/20 10:47:51;;;;;;;7.78;6.97;;;;;;;3.58;96.24;100600.09;4997492;28;20038;-74
2023/01/20 10:50:30;;;;;;;6.80;6.07;;;;;;;3.58;95.55;100596.63;4997090;28;20417;-74
2023/01/20 10:53:21;;;;;;;7.18;6.20;;;;;;;3.15;95.95;100600.81;4998809;28;20084;-74
2023/01/20 10:56:13;;;;;;;7.95;6.28;;;;;;;2.98;96.76;100606.47;4996939;28;20413;-74
2023/01/20 10:58:43;;;;;;;7.45;6.15;;;;;;;2.91;97.48;100604.56;4996737;28;20042;-74
2023/01/20 11:01:13;;;;;;;10.02;7.18;;;;;;;2.78;97.31;100611.19;5002120;28;20089;-74
2023/01/20 11:03:41;;;;;;;8.77;6.00;;;;;;;2.78;99.21;100612.91;5000098;28;20076;-74
2023/01/20 11:06:15;;;;;;;8.32;7.28;;;;;;;2.94;98.99;100604.63;5000133;28;20021;-74
2023/01/20 11:08:41;;;;;;;7.00;6.28;;;;;;;3.13;98.03;100611.19;4996062;28;20034;-74
2023/01/20 11:11:13;;;;;;;7.75;6.20;;;;;;;2.94;98.74;100609.84;4999885;28;20101;-74
2023/01/20 11:13:40;;;;;;;7.38;6.32;;;;;;;2.85;99.26;100620.03;4995030;28;20054;-74
2023/01/20 11:16:17;;;;;;;7.40;6.50;;;;;;;3.04;98.78;100616.19;5003563;28;20515;-74
2023/01/20 11:18:54;;;;;;;6.70;6.00;;;;;;;3.16;98.23;100620.81;5000288;28;20088;-74
2023/01/20 11:21:26;;;;;;;7.53;6.75;;;;;;;3.26;97.51;100628.03;4997447;28;20053;-74
2023/01/20 11:23:57;;;;;;;6.75;5.93;;;;;;;3.20;96.52;100631.38;5002950;28;20117;-74
2023/01/20 11:26:25;;;;;;;6.93;5.93;;;;;;;3.05;95.99;100634.47;4999880;28;20125;-73
2023/01/20 11:28:57;;;;;;;7.00;6.25;;;;;;;3.06;97.01;100633.63;5000093;28;20026;-73
2023/01/20 11:31:46;;;;;;;7.47;5.82;;;;;;;3.19;97.35;100633.94;4999279;28;20434;-73
2023/01/20 11:34:20;;;;;;;6.38;5.78;;;;;;;3.31;98.12;100647.31;5002097;28;20440;-74
2023/01/20 11:36:46;;;;;;;7.13;5.80;;;;;;;3.45;97.36;100642.41;4997528;28;20121;-74
2023/01/20 11:39:29;;;;;;;5.93;4.82;;;;;;;3.63;95.66;100644.59;5000115;28;20411;-73